Time;durP1;ratioP1;P1;durP2;ratioP2;P2;SDS_P1;SDS_P2;PMS_P1;PMS_P2;Temp;Humidity;BMP_temperature;BMP_pressure;BME280_temperature;BME280_humidity;BME280_pressure;Samples;Min_cycle;Max_cycle;Signal;HPM_P1;HPM_P2
2023/10/17 00:00:39;;;;;;;6.90;2.30;;;;;;;7.44;100.00;92717.66;6271390;22;20012;-78
2023/10/17 00:03:11;;;;;;;11.43;2.42;;;;;;;7.44;100.00;92719.50;6271860;22;20026;-76
2023/10/17 00:05:37;;;;;;;4.72;2.20;;;;;;;7.44;100.00;92725.47;6271292;22;20411;-76
2023/10/17 00:08:05;;;;;;;6.68;2.75;;;;;;;7.43;100.00;92720.53;6271938;22;20019;-76
2023/10/17 00:10:41;;;;;;;9.40;2.47;;;;;;;7.42;100.00;92724.97;6271944;22;20515;-76
2023/10/17 00:13:59;;;;;;;5.57;2.65;;;;;;;7.41;100.00;92717.44;6271829;22;20016;-79
2023/10/17 00:15:52;;;;;;;6.00;2.50;;;;;;;7.40;100.00;92714.03;6250369;22;20069;-77
2023/10/17 00:18:20;;;;;;;8.15;2.58;;;;;;;7.41;100.00;92714.81;6271427;22;20008;-76
2023/10/17 00:20:50;;;;;;;5.25;2.50;;;;;;;7.40;100.00;92708.03;6271563;22;20039;-78
2023/10/17 00:23:20;;;;;;;7.65;2.70;;;;;;;7.36;100.00;92712.19;6269657;22;20019;-77
2023/10/17 00:25:49;;;;;;;7.03;2.55;;;;;;;7.34;100.00;92714.28;6271819;22;20472;-77
2023/10/17 00:28:20;;;;;;;7.70;2.50;;;;;;;7.34;100.00;92707.25;6271498;22;20018;-76
2023/10/17 00:30:48;;;;;;;4.97;2.40;;;;;;;7.31;100.00;92702.56;6246024;22;20020;-76
2023/10/17 00:33:16;;;;;;;6.43;2.60;;;;;;;7.28;100.00;92696.06;6271716;22;19999;-77
2023/10/17 00:35:47;;;;;;;10.15;2.80;;;;;;;7.28;100.00;92703.88;6270133;22;20015;-77
2023/10/17 00:38:15;;;;;;;11.32;3.10;;;;;;;7.25;100.00;92696.59;6271722;22;20016;-77
2023/10/17 00:40:51;;;;;;;5.47;2.53;;;;;;;7.21;100.00;92692.94;6271784;22;20042;-76
2023/10/17 00:43:17;;;;;;;7.00;3.17;;;;;;;7.18;100.00;92690.84;6271288;22;20020;-76
2023/10/17 00:45:46;;;;;;;7.28;2.67;;;;;;;7.16;100.00;92690.34;6271301;22;20590;-76
2023/10/17 00:48:18;;;;;;;10.35;2.90;;;;;;;7.12;100.00;92678.88;6271163;22;20115;-76
2023/10/17 00:50:49;;;;;;;11.63;3.20;;;;;;;7.12;100.00;92683.31;6272091;22;20090;-77
2023/10/17 00:53:16;;;;;;;5.63;2.72;;;;;;;7.08;100.00;92680.41;6271314;22;20027;-77
2023/10/17 00:55:51;;;;;;;9.88;2.83;;;;;;;7.05;100.00;92678.34;6269839;22;20062;-77
2023/10/17 00:58:18;;;;;;;8.75;3.13;;;;;;;7.02;100.00;92679.63;6270267;22;20016;-76
2023/10/17 01:01:48;;;;;;;9.63;2.60;;;;;;;7.03;100.00;92683.81;6244528;22;20039;-76
2023/10/17 01:03:43;;;;;;;6.97;2.80;;;;;;;7.04;100.00;92681.97;6250822;22;20022;-76
2023/10/17 01:06:15;;;;;;;9.70;2.75;;;;;;;7.04;100.00;92684.56;6244700;22;20486;-77
2023/10/17 01:08:44;;;;;;;9.85;2.75;;;;;;;7.08;100.00;92683.03;6271103;22;20035;-78
2023/10/17 01:11:27;;;;;;;6.15;2.83;;;;;;;7.09;100.00;92690.59;6243871;22;20504;-76
2023/10/17 01:13:54;;;;;;;6.85;2.97;;;;;;;7.09;100.00;92682.78;6269703;22;20023;-77
2023/10/17 01:16:20;;;;;;;5.20;2.72;;;;;;;7.12;100.00;92684.06;6270292;22;20018;-79
2023/10/17 01:18:46;;;;;;;6.75;2.90;;;;;;;7.12;100.00;92684.06;6271151;22;20098;-76
2023/10/17 01:21:19;;;;;;;6.50;2.90;;;;;;;7.10;100.00;92678.34;6270355;22;20170;-78
2023/10/17 01:23:49;;;;;;;6.38;3.10;;;;;;;7.11;100.00;92681.72;6244908;22;20265;-77
2023/10/17 01:26:20;;;;;;;10.68;3.03;;;;;;;7.12;100.00;92680.69;6271077;22;20054;-77
2023/10/17 01:28:51;;;;;;;8.35;2.88;;;;;;;7.08;100.00;92677.81;6268808;22;20003;-77
2023/10/17 01:31:24;;;;;;;8.48;3.17;;;;;;;7.05;100.00;92673.13;6270681;22;20020;-76
2023/10/17 01:33:52;;;;;;;9.02;3.10;;;;;;;7.03;100.00;92673.38;6268851;22;20098;-76
2023/10/17 01:36:19;;;;;;;5.20;2.80;;;;;;;6.94;100.00;92666.38;6271398;22;20022;-76
2023/10/17 01:38:46;;;;;;;9.15;3.47;;;;;;;6.88;100.00;92676.75;6270923;22;20008;-77
2023/10/17 01:41:14;;;;;;;7.47;3.17;;;;;;;6.82;100.00;92670.00;6271161;22;20344;-76
2023/10/17 01:43:40;;;;;;;6.90;3.40;;;;;;;6.78;100.00;92671.53;6271926;22;19999;-76
2023/10/17 01:46:14;;;;;;;6.85;3.00;;;;;;;6.75;100.00;92671.25;6272313;22;20189;-76
2023/10/17 01:48:46;;;;;;;10.15;3.53;;;;;;;6.67;100.00;92662.16;6271844;22;20007;-80
2023/10/17 01:51:14;;;;;;;8.07;3.22;;;;;;;6.58;100.00;92651.47;6271471;22;20050;-76
2023/10/17 01:53:41;;;;;;;5.90;3.20;;;;;;;6.54;100.00;92652.22;6272844;22;20075;-76
2023/10/17 01:56:13;;;;;;;12.52;3.53;;;;;;;6.44;100.00;92648.56;6245723;22;20015;-76
2023/10/17 01:58:39;;;;;;;;;;;;;;;6.39;100.00;92648.53;6271870;22;20016;-76
2023/10/17 02:01:14;;;;;;;8.63;3.63;;;;;;;6.36;100.00;92650.88;6271198;22;20264;-79
2023/10/17 02:03:41;;;;;;;10.95;3.75;;;;;;;6.32;100.00;92648.00;6273060;22;20041;-78
2023/10/17 02:06:16;;;;;;;13.38;4.03;;;;;;;6.29;100.00;92645.94;6273196;22;20012;-79
2023/10/17 02:08:44;;;;;;;6.95;3.38;;;;;;;6.28;100.00;92639.16;6274213;22;20141;-77
2023/10/17 02:11:23;;;;;;;7.28;3.70;;;;;;;6.25;100.00;92644.88;6271602;22;20464;-78
2023/10/17 02:13:56;;;;;;;10.70;4.07;;;;;;;6.16;100.00;92652.38;6271751;22;20472;-78
2023/10/17 02:16:29;;;;;;;7.03;3.97;;;;;;;6.12;100.00;92645.34;6270337;22;20011;-78
2023/10/17 02:19:06;;;;;;;10.45;3.85;;;;;;;6.08;100.00;92646.88;6271654;22;20371;-78
2023/10/17 02:21:31;;;;;;;6.85;3.63;;;;;;;6.07;100.00;92647.91;6271599;22;20023;-78
2023/10/17 02:23:57;;;;;;;10.23;3.75;;;;;;;6.02;100.00;92646.88;6273156;22;20016;-79
2023/10/17 02:26:23;;;;;;;5.57;3.20;;;;;;;5.97;100.00;92654.66;6273896;22;20467;-78
2023/10/17 02:29:10;;;;;;;5.25;3.35;;;;;;;5.96;100.00;92653.06;6272286;22;20012;-78
2023/10/17 02:31:36;;;;;;;7.22;3.38;;;;;;;5.91;100.00;92653.03;6273633;22;20015;-78
2023/10/17 02:34:02;;;;;;;7.00;3.28;;;;;;;5.87;100.00;92651.19;6272805;22;20433;-78
2023/10/17 02:36:27;;;;;;;8.52;3.33;;;;;;;5.87;100.00;92653.78;6272672;22;20016;-78
2023/10/17 02:38:53;;;;;;;8.13;3.38;;;;;;;5.86;100.00;92658.19;6273050;22;20476;-78
2023/10/17 02:41:19;;;;;;;7.35;3.30;;;;;;;5.84;100.00;92645.44;6273497;22;20441;-78
2023/10/17 02:43:46;;;;;;;7.18;3.50;;;;;;;5.88;100.00;92658.72;6273513;22;20004;-78
2023/10/17 02:46:14;;;;;;;6.20;4.13;;;;;;;5.89;100.00;92656.91;6246118;22;20042;-80
2023/10/17 02:48:45;;;;;;;8.40;4.25;;;;;;;5.90;100.00;92659.25;6270994;22;20010;-78
2023/10/17 02:53:55;;;;;;;8.13;4.57;;;;;;;5.94;100.00;92649.13;6272590;22;20015;-78
2023/10/17 02:56:25;;;;;;;8.10;4.82;;;;;;;5.99;100.00;92652.56;6272552;22;20337;-79
2023/10/17 02:59:13;;;;;;;7.38;4.38;;;;;;;6.00;100.00;92643.72;6272681;22;20387;-78
2023/10/17 03:01:40;;;;;;;7.75;4.53;;;;;;;6.03;100.00;92638.03;6271779;22;20352;-78
2023/10/17 03:04:08;;;;;;;8.23;4.78;;;;;;;6.05;100.00;92641.16;6271054;22;20012;-79
2023/10/17 03:06:38;;;;;;;8.48;4.47;;;;;;;6.09;100.00;92640.66;6270956;22;20086;-78
2023/10/17 03:12:19;;;;;;;6.97;4.70;;;;;;;6.10;100.00;92642.97;6273185;22;20023;-77
2023/10/17 03:14:40;;;;;;;13.23;5.45;;;;;;;6.10;100.00;92637.78;6272140;22;20047;-79
2023/10/17 03:17:10;;;;;;;10.73;4.95;;;;;;;6.12;100.00;92634.94;6272519;22;20062;-78
2023/10/17 03:19:37;;;;;;;11.27;5.18;;;;;;;6.09;100.00;92630.25;6272544;22;20437;-78
2023/10/17 03:22:16;;;;;;;7.75;4.25;;;;;;;6.08;100.00;92636.47;6290670;22;20090;-78
2023/10/17 03:24:47;;;;;;;13.45;4.70;;;;;;;6.05;100.00;92648.94;6276388;22;20017;-79
2023/10/17 03:27:27;;;;;;;9.90;4.78;;;;;;;6.02;100.00;92648.69;6276462;22;20015;-78
2023/10/17 03:29:53;;;;;;;6.70;4.70;;;;;;;6.01;100.00;92650.50;6276403;22;20018;-78
2023/10/17 03:32:22;;;;;;;7.78;4.93;;;;;;;5.99;100.00;92652.56;6277458;22;20348;-78
2023/10/17 03:34:56;;;;;;;10.25;5.25;;;;;;;6.04;100.00;92649.22;6250204;22;20003;-78
2023/10/17 03:39:53;;;;;;;13.57;4.70;;;;;;;6.01;100.00;92660.91;6276234;22;20364;-78
2023/10/17 03:44:58;;;;;;;9.23;4.95;;;;;;;6.00;100.00;92669.72;6303444;22;20010;-78
2023/10/17 03:47:23;;;;;;;10.65;4.75;;;;;;;6.00;100.00;92674.13;6303583;22;20003;-78
2023/10/17 03:49:49;;;;;;;9.13;4.93;;;;;;;6.02;100.00;92672.06;6276163;22;20011;-78
2023/10/17 03:52:16;;;;;;;9.40;4.43;;;;;;;6.05;100.00;92666.34;6303375;22;20019;-78
2023/10/17 03:54:44;;;;;;;6.63;4.22;;;;;;;6.09;100.00;92674.44;6302916;22;20025;-78
2023/10/17 03:57:16;;;;;;;8.18;4.45;;;;;;;6.12;100.00;92660.94;6303565;22;20064;-78
2023/10/17 03:59:50;;;;;;;7.70;5.05;;;;;;;6.14;100.00;92657.03;6303746;22;20447;-78
2023/10/17 04:02:20;;;;;;;11.32;4.93;;;;;;;6.15;100.00;92655.25;6303098;22;20019;-79
2023/10/17 04:04:55;;;;;;;11.70;4.90;;;;;;;6.18;100.00;92658.09;6303041;22;20460;-78
2023/10/17 04:07:23;;;;;;;8.38;4.82;;;;;;;6.21;100.00;92657.59;6302890;22;20189;-78
2023/10/17 04:12:48;;;;;;;10.65;4.68;;;;;;;6.26;100.00;92662.03;6303086;22;20475;-80
2023/10/17 04:15:17;;;;;;;10.98;5.13;;;;;;;6.28;100.00;92653.97;6302507;22;20436;-78
2023/10/17 04:17:46;;;;;;;11.98;5.00;;;;;;;6.29;100.00;92656.31;6304054;22;20011;-78
2023/10/17 04:20:12;;;;;;;7.80;4.68;;;;;;;6.30;100.00;92657.09;6303537;22;19995;-78
2023/10/17 04:22:44;;;;;;;7.88;5.03;;;;;;;6.30;100.00;92652.69;6270453;22;20023;-78
2023/10/17 04:25:20;;;;;;;7.32;4.93;;;;;;;6.31;100.00;92654.25;6272090;22;20008;-78
2023/10/17 04:28:16;;;;;;;7.60;4.93;;;;;;;6.35;100.00;92652.72;6287879;22;20070;-78
2023/10/17 04:30:46;;;;;;;12.02;4.75;;;;;;;6.39;100.00;92665.97;6283951;22;20041;-77
2023/10/17 04:33:19;;;;;;;9.27;5.97;;;;;;;6.41;100.00;92650.91;6286041;22;20007;-78
2023/10/17 04:35:53;;;;;;;10.27;5.25;;;;;;;6.44;100.00;92658.19;6288711;22;20035;-78
2023/10/17 04:38:26;;;;;;;8.23;5.25;;;;;;;6.44;100.00;92648.56;6284514;22;20042;-78
2023/10/17 04:41:17;;;;;;;9.68;4.93;;;;;;;6.49;100.00;92647.03;6284224;22;20069;-77
2023/10/17 04:43:45;;;;;;;13.60;5.13;;;;;;;6.51;100.00;92642.31;6285754;22;20015;-78
2023/10/17 04:46:17;;;;;;;7.45;4.50;;;;;;;6.53;100.00;92650.66;6287371;22;20011;-78
2023/10/17 04:48:52;;;;;;;9.25;4.88;;;;;;;6.56;100.00;92655.38;6289043;22;20255;-78
2023/10/17 04:53:50;;;;;;;9.50;5.30;;;;;;;6.67;100.00;92651.75;6288059;22;20098;-82
2023/10/17 04:56:24;;;;;;;8.57;4.97;;;;;;;6.68;100.00;92653.28;6291897;22;20019;-80
2023/10/17 05:03:55;;;;;;;11.38;5.50;;;;;;;6.74;100.00;92636.66;6291533;22;20012;-78
2023/10/17 05:06:51;;;;;;;11.35;5.68;;;;;;;6.73;100.00;92640.28;6289440;22;20020;-79
2023/10/17 06:17:34;;;;;;;9.30;5.10;;;;;;;7.42;100.00;92659.06;6323238;22;20030;-79
2023/10/17 06:20:00;;;;;;;11.15;5.45;;;;;;;7.46;100.00;92660.88;6323902;22;20011;-78
2023/10/17 06:26:04;;;;;;;10.20;5.35;;;;;;;7.65;100.00;92663.72;6323172;22;20084;-80
2023/10/17 06:33:16;;;;;;;11.30;5.47;;;;;;;7.66;100.00;92667.91;6323006;22;20019;-79
2023/10/17 06:35:54;;;;;;;7.75;5.20;;;;;;;7.63;100.00;92662.44;6322362;22;20320;-80
2023/10/17 06:38:36;;;;;;;13.02;5.60;;;;;;;7.66;100.00;92665.28;6298859;22;20015;-80
2023/10/17 06:43:46;;;;;;;11.25;5.25;;;;;;;7.70;100.00;92670.75;6325551;22;20035;-80
2023/10/17 06:46:28;;;;;;;11.88;5.82;;;;;;;8.08;100.00;92674.59;6298109;22;20010;-80
2023/10/17 06:48:57;;;;;;;8.30;5.10;;;;;;;9.58;100.00;92681.31;6297619;22;20015;-80
2023/10/17 06:51:36;;;;;;;12.40;5.55;;;;;;;10.95;100.00;92676.72;6326568;22;20035;-81
2023/10/17 06:54:06;;;;;;;8.70;5.13;;;;;;;12.26;100.00;92674.88;6272710;22;20046;-81
2023/10/17 06:56:38;;;;;;;9.77;4.78;;;;;;;13.38;100.00;92686.78;6309004;22;20075;-78
2023/10/17 06:59:21;;;;;;;7.68;4.78;;;;;;;14.25;100.00;92682.06;6308680;22;20015;-79
2023/10/17 07:01:55;;;;;;;13.23;4.55;;;;;;;15.39;100.00;92688.34;6311220;22;20011;-79
2023/10/17 07:04:21;;;;;;;10.07;4.82;;;;;;;16.01;100.00;92692.53;6314071;22;20071;-79
2023/10/17 07:06:47;;;;;;;7.75;4.80;;;;;;;16.88;92.64;92692.19;6315301;22;20007;-79
2023/10/17 07:09:18;;;;;;;7.35;4.30;;;;;;;17.00;83.90;92694.13;6263633;22;20445;-79
2023/10/17 07:11:47;;;;;;;7.00;4.47;;;;;;;17.10;81.96;92693.78;6314653;22;20021;-79
2023/10/17 07:14:22;;;;;;;8.70;4.20;;;;;;;16.31;88.23;92690.72;6313824;22;20015;-79
2023/10/17 07:16:57;;;;;;;11.43;4.10;;;;;;;16.36;83.25;92693.19;6313207;22;20094;-79
2023/10/17 07:24:33;;;;;;;8.13;3.17;;;;;;;14.64;100.00;92677.88;6288742;22;20015;-80
2023/10/17 07:29:58;;;;;;;8.23;3.95;;;;;;;13.47;100.00;92690.25;6325876;22;20011;-80
2023/10/17 07:32:25;;;;;;;7.15;4.00;;;;;;;12.86;100.00;92694.19;6324423;22;20034;-80
2023/10/17 07:34:52;;;;;;;12.00;4.43;;;;;;;12.59;100.00;92687.13;6299185;22;20009;-80
2023/10/17 07:42:31;;;;;;;6.22;3.20;;;;;;;12.66;100.00;92688.28;6326048;22;20007;-84
2023/10/17 07:45:04;;;;;;;6.20;3.63;;;;;;;12.94;100.00;92695.34;6274456;22;20025;-83
2023/10/17 07:47:35;;;;;;;9.50;3.47;;;;;;;12.57;100.00;92695.28;6301358;22;20071;-82
2023/10/17 07:50:01;;;;;;;8.47;3.13;;;;;;;12.57;100.00;92695.28;6299122;22;20011;-83
2023/10/17 07:52:31;;;;;;;7.00;3.75;;;;;;;12.64;100.00;92700.94;6301698;22;20042;-83
2023/10/17 07:55:18;;;;;;;7.97;3.38;;;;;;;12.39;100.00;92698.81;6327164;22;20011;-82
2023/10/17 07:58:06;;;;;;;6.25;3.13;;;;;;;12.27;100.00;92694.81;6328277;22;20011;-81
2023/10/17 08:00:48;;;;;;;7.78;3.33;;;;;;;12.42;100.00;92685.09;6326707;22;20068;-82
2023/10/17 08:03:28;;;;;;;8.88;3.42;;;;;;;12.38;100.00;92695.38;6327885;22;20011;-82
2023/10/17 08:06:20;;;;;;;8.80;2.95;;;;;;;12.44;100.00;92688.19;6300433;22;20046;-81
2023/10/17 08:08:53;;;;;;;8.10;3.50;;;;;;;12.32;100.00;92695.78;6328589;22;20463;-81
2023/10/17 08:11:28;;;;;;;7.82;3.17;;;;;;;12.19;100.00;92702.56;6301078;22;20348;-80
2023/10/17 08:14:09;;;;;;;6.50;3.58;;;;;;;11.95;100.00;92698.25;6328015;22;20067;-82
2023/10/17 08:16:40;;;;;;;8.07;3.30;;;;;;;11.83;100.00;92696.06;6327708;22;20011;-81
2023/10/17 08:19:13;;;;;;;6.63;3.60;;;;;;;11.95;100.00;92703.50;6301736;22;20037;-82
2023/10/17 08:24:46;;;;;;;6.78;3.50;;;;;;;11.98;100.00;92702.13;6296962;22;20069;-81
2023/10/17 08:29:49;;;;;;;4.50;2.85;;;;;;;12.05;100.00;92697.31;6294133;22;20065;-82
2023/10/17 08:34:59;;;;;;;6.50;4.25;;;;;;;12.26;100.00;92688.00;6296508;22;20381;-82
2023/10/17 08:37:30;;;;;;;5.03;2.42;;;;;;;12.13;100.00;92691.38;6293082;22;20004;-80
2023/10/17 08:39:57;;;;;;;9.48;4.30;;;;;;;11.64;100.00;92697.94;6267367;22;20016;-80
2023/10/17 08:44:55;;;;;;;;;;;;;;;11.84;100.00;92704.72;6283610;22;20106;-82
2023/10/17 08:47:25;;;;;;;7.05;4.28;;;;;;;12.17;100.00;92697.59;6285063;22;20313;-81
2023/10/17 08:49:54;;;;;;;12.00;4.40;;;;;;;11.72;100.00;92709.63;6287775;22;20016;-80
2023/10/17 08:52:27;;;;;;;9.82;4.10;;;;;;;11.67;100.00;92705.25;6286705;22;20012;-80
2023/10/17 08:54:54;;;;;;;6.75;4.38;;;;;;;11.55;100.00;92715.41;6287065;22;20022;-81
2023/10/17 08:57:20;;;;;;;6.28;3.58;;;;;;;11.58;100.00;92717.47;6285617;22;19996;-81
2023/10/17 09:04:49;;;;;;;8.85;4.60;;;;;;;11.77;100.00;92705.06;6285533;22;20007;-81
2023/10/17 09:07:31;;;;;;;10.23;5.47;;;;;;;11.76;100.00;92703.53;6283099;22;20076;-81
2023/10/17 09:10:03;;;;;;;9.02;5.35;;;;;;;11.74;100.00;92703.03;6258004;22;20030;-81
2023/10/17 09:12:29;;;;;;;;;;;;;;;11.48;100.00;92699.25;6286856;22;20046;-81
2023/10/17 09:14:57;;;;;;;10.75;4.93;;;;;;;11.54;100.00;92696.28;6286373;22;19911;-81
2023/10/17 09:19:52;;;;;;;7.90;4.70;;;;;;;11.47;100.00;92703.72;6285117;22;20008;-81
2023/10/17 09:22:24;;;;;;;8.13;4.40;;;;;;;11.21;100.00;92711.19;6309226;22;20026;-80
2023/10/17 09:24:51;;;;;;;8.80;4.35;;;;;;;11.39;100.00;92710.41;6319757;22;20012;-80
2023/10/17 09:27:18;;;;;;;11.88;4.82;;;;;;;11.17;100.00;92715.44;6318726;22;20458;-81
2023/10/17 09:29:49;;;;;;;7.63;4.60;;;;;;;10.97;100.00;92712.03;6315983;22;20486;-81
2023/10/17 09:32:37;;;;;;;8.32;4.80;;;;;;;10.74;100.00;92718.06;6292086;22;20014;-80
2023/10/17 09:35:15;;;;;;;8.07;5.15;;;;;;;10.72;100.00;92715.75;6319627;22;20007;-80
2023/10/17 09:37:42;;;;;;;7.75;4.88;;;;;;;10.75;100.00;92719.66;6319620;22;20007;-80
2023/10/17 09:40:14;;;;;;;10.27;5.25;;;;;;;10.76;100.00;92716.75;6320074;22;20007;-80
2023/10/17 09:42:41;;;;;;;7.13;4.88;;;;;;;10.71;100.00;92721.28;6293064;22;20018;-81
2023/10/17 09:45:09;;;;;;;13.35;5.07;;;;;;;10.65;100.00;92719.75;6319050;22;20016;-80
2023/10/17 09:47:39;;;;;;;10.27;4.97;;;;;;;10.93;100.00;92715.50;6316911;22;20012;-81
2023/10/17 09:50:10;;;;;;;6.82;3.90;;;;;;;11.15;100.00;92712.34;6311988;22;20045;-81
2023/10/17 09:52:37;;;;;;;8.05;5.00;;;;;;;10.98;100.00;92718.81;6291661;22;20102;-81
2023/10/17 09:55:06;;;;;;;7.22;4.85;;;;;;;10.94;100.00;92717.84;6318592;22;20025;-81
2023/10/17 09:57:35;;;;;;;8.10;5.13;;;;;;;10.77;100.00;92723.53;6291655;22;20432;-81
2023/10/17 10:00:17;;;;;;;11.27;4.90;;;;;;;10.74;100.00;92721.50;6319809;22;20310;-81
2023/10/17 10:02:46;;;;;;;9.13;5.63;;;;;;;10.83;100.00;92721.66;6319253;22;20073;-81
2023/10/17 10:05:19;;;;;;;11.52;4.97;;;;;;;11.06;100.00;92716.66;6318300;22;20033;-81
2023/10/17 10:07:44;;;;;;;9.27;5.15;;;;;;;11.08;100.00;92722.34;6290596;22;20019;-81
2023/10/17 10:10:42;;;;;;;8.40;4.72;;;;;;;10.93;100.00;92723.34;6314175;22;20291;-81
2023/10/17 10:13:13;;;;;;;9.18;4.88;;;;;;;10.97;100.00;92722.50;6318679;22;20075;-81
2023/10/17 10:15:58;;;;;;;7.65;4.63;;;;;;;10.91;100.00;92730.72;6318077;22;20016;-80
2023/10/17 10:18:36;;;;;;;9.90;4.68;;;;;;;10.80;100.00;92724.81;6316360;22;20003;-81
2023/10/17 10:21:03;;;;;;;7.25;4.40;;;;;;;10.95;100.00;92724.63;6288082;22;20090;-80
2023/10/17 10:23:36;;;;;;;9.45;4.85;;;;;;;10.69;100.00;92718.91;6290373;22;20018;-81
2023/10/17 10:26:10;;;;;;;9.88;4.13;;;;;;;10.87;100.00;92717.41;6290389;22;20007;-79
2023/10/17 10:28:38;;;;;;;14.80;4.75;;;;;;;10.97;100.00;92717.28;6316870;22;20011;-79
2023/10/17 10:31:22;;;;;;;10.57;4.78;;;;;;;11.09;100.00;92708.22;6289512;22;20000;-80
2023/10/17 10:33:49;;;;;;;6.85;3.88;;;;;;;11.18;100.00;92703.91;6317115;22;20011;-79
2023/10/17 10:36:18;;;;;;;7.53;4.25;;;;;;;11.17;100.00;92704.97;6316760;22;20035;-79
2023/10/17 10:38:45;;;;;;;9.32;4.40;;;;;;;11.11;100.00;92700.84;6316659;22;20015;-80
2023/10/17 10:41:13;;;;;;;6.13;3.55;;;;;;;11.10;100.00;92694.03;6315664;22;20394;-80
2023/10/17 10:43:43;;;;;;;6.32;4.03;;;;;;;11.04;100.00;92691.50;6316788;22;20039;-79
2023/10/17 10:46:09;;;;;;;13.10;4.47;;;;;;;10.97;100.00;92690.31;6318034;22;20423;-80
2023/10/17 10:48:35;;;;;;;7.28;3.83;;;;;;;11.01;100.00;92691.28;6318115;22;20016;-79
2023/10/17 10:51:02;;;;;;;9.40;4.50;;;;;;;11.06;100.00;92693.06;6316450;22;20063;-79
2023/10/17 10:53:33;;;;;;;7.53;4.13;;;;;;;11.15;100.00;92686.91;6317109;22;19995;-79
2023/10/17 10:56:01;;;;;;;7.43;4.25;;;;;;;11.12;100.00;92681.44;6317874;22;20015;-79
2023/10/17 10:58:28;;;;;;;8.85;4.22;;;;;;;11.05;100.00;92681.78;6317185;22;20007;-81
2023/10/17 11:00:58;;;;;;;9.82;4.03;;;;;;;11.11;100.00;92682.50;6286995;22;20063;-78
2023/10/17 11:03:24;;;;;;;9.77;4.63;;;;;;;11.13;100.00;92677.78;6288846;22;20152;-78
2023/10/17 11:05:52;;;;;;;8.80;4.13;;;;;;;11.15;100.00;92676.41;6315539;22;20055;-81
2023/10/17 11:08:20;;;;;;;7.93;4.72;;;;;;;11.05;100.00;92684.41;6316643;22;20011;-81
2023/10/17 11:10:46;;;;;;;7.43;4.38;;;;;;;11.01;100.00;92680.78;6315793;22;20022;-80
2023/10/17 11:13:12;;;;;;;7.32;4.10;;;;;;;11.15;100.00;92680.88;6263737;22;20003;-81
2023/10/17 11:15:43;;;;;;;6.40;4.25;;;;;;;11.17;100.00;92668.28;6315361;22;20065;-81
2023/10/17 11:18:10;;;;;;;9.10;4.63;;;;;;;11.20;100.00;92672.94;6315106;22;20011;-79
2023/10/17 11:20:40;;;;;;;5.70;3.70;;;;;;;11.29;100.00;92655.50;6312703;22;20015;-78
2023/10/17 11:23:11;;;;;;;8.60;4.38;;;;;;;11.32;100.00;92662.03;6316528;22;20049;-79
2023/10/17 11:25:44;;;;;;;10.57;3.90;;;;;;;11.46;100.00;92652.38;6317860;22;20014;-79
2023/10/17 11:28:09;;;;;;;8.07;4.00;;;;;;;11.56;100.00;92654.81;6316696;22;20011;-79
2023/10/17 11:30:42;;;;;;;6.88;4.22;;;;;;;11.37;100.00;92652.25;6317414;22;20123;-79
2023/10/17 11:33:14;;;;;;;6.53;4.13;;;;;;;11.38;100.00;92645.94;6318701;22;20481;-78
2023/10/17 11:35:47;;;;;;;8.95;4.32;;;;;;;11.41;100.00;92650.59;6317162;22;20061;-78
2023/10/17 11:38:37;;;;;;;6.60;4.30;;;;;;;11.59;100.00;92648.22;6316033;22;20018;-78
2023/10/17 11:41:07;;;;;;;8.68;4.22;;;;;;;11.85;100.00;92641.47;6301568;22;20312;-77
2023/10/17 11:43:42;;;;;;;9.38;4.60;;;;;;;12.06;100.00;92636.66;6274466;22;20011;-77
2023/10/17 11:46:14;;;;;;;8.13;3.80;;;;;;;12.33;100.00;92635.09;6301891;22;20007;-77
2023/10/17 11:48:44;;;;;;;5.93;3.35;;;;;;;12.59;100.00;92638.00;6302599;22;20455;-77
2023/10/17 11:51:17;;;;;;;5.47;3.40;;;;;;;12.55;100.00;92633.63;6303054;22;20003;-79
2023/10/17 11:54:22;;;;;;;7.03;3.47;;;;;;;12.40;100.00;92626.84;6303150;22;20452;-77
2023/10/17 11:56:48;;;;;;;8.93;3.90;;;;;;;12.33;100.00;92624.59;6148192;23;20471;-77
2023/10/17 11:59:18;;;;;;;8.70;4.00;;;;;;;12.30;100.00;92630.47;6148046;23;20020;-78
2023/10/17 12:01:47;;;;;;;5.47;3.25;;;;;;;12.37;100.00;92622.19;6225096;22;20015;-78
2023/10/17 12:04:23;;;;;;;6.82;3.08;;;;;;;12.63;100.00;92625.06;6302190;22;20016;-78
2023/10/17 12:06:49;;;;;;;6.97;3.28;;;;;;;12.84;100.00;92609.66;6302335;22;20015;-78
2023/10/17 12:09:17;;;;;;;5.35;3.40;;;;;;;13.09;100.00;92597.78;6302231;22;20011;-77
2023/10/17 12:11:51;;;;;;;6.10;3.33;;;;;;;13.43;100.00;92601.75;6302524;22;20022;-77
2023/10/17 12:14:20;;;;;;;5.43;3.15;;;;;;;13.57;100.00;92601.66;6275330;22;20329;-78
2023/10/17 12:16:58;;;;;;;5.38;3.10;;;;;;;13.70;100.00;92598.19;6302622;22;20026;-77
2023/10/17 12:19:26;;;;;;;6.22;2.92;;;;;;;13.96;100.00;92600.94;6302752;22;20429;-77
2023/10/17 12:22:00;;;;;;;5.50;2.80;;;;;;;14.23;100.00;92592.06;6302118;22;20022;-76
2023/10/17 12:24:29;;;;;;;5.35;3.05;;;;;;;14.46;100.00;92605.91;6302709;22;20522;-77
2023/10/17 12:26:56;;;;;;;4.67;2.70;;;;;;;14.61;100.00;92590.75;6302401;22;20043;-77
2023/10/17 12:29:25;;;;;;;5.80;2.70;;;;;;;14.84;100.00;92586.13;6301741;22;20140;-77
2023/10/17 12:31:53;;;;;;;5.72;2.67;;;;;;;14.94;99.30;92581.31;6301942;22;20026;-78
2023/10/17 12:34:19;;;;;;;5.15;2.80;;;;;;;14.96;95.59;92587.06;6275144;22;20015;-78
2023/10/17 12:36:46;;;;;;;7.00;3.70;;;;;;;14.65;97.54;92592.47;6275123;22;20341;-77
2023/10/17 12:39:14;;;;;;;7.63;3.28;;;;;;;14.40;100.00;92590.53;6302259;22;20476;-77
2023/10/17 12:41:41;;;;;;;5.75;3.30;;;;;;;13.95;100.00;92579.09;6302417;22;20011;-80
2023/10/17 12:44:06;;;;;;;11.02;3.75;;;;;;;13.65;100.00;92572.78;6302026;22;20094;-77
2023/10/17 12:46:32;;;;;;;6.80;3.10;;;;;;;13.38;100.00;92571.09;6302067;22;20058;-77
2023/10/17 12:48:57;;;;;;;6.18;3.60;;;;;;;13.03;100.00;92565.59;6301883;22;20015;-78
2023/10/17 12:51:23;;;;;;;5.53;3.47;;;;;;;12.84;100.00;92560.50;6302064;22;20145;-77
2023/10/17 12:53:51;;;;;;;4.10;2.72;;;;;;;12.80;100.00;92567.44;6301769;22;20347;-77
2023/10/17 12:56:20;;;;;;;5.25;3.35;;;;;;;12.56;100.00;92559.81;6301311;22;20019;-77
2023/10/17 12:58:49;;;;;;;15.80;2.90;;;;;;;12.64;100.00;92561.75;6301898;22;20073;-77
2023/10/17 13:01:17;;;;;;;6.85;2.85;;;;;;;12.75;100.00;92558.91;6302005;22;20003;-78
2023/10/17 13:03:42;;;;;;;8.77;3.28;;;;;;;12.64;100.00;92563.59;6302331;22;20090;-77
2023/10/17 13:06:11;;;;;;;8.20;3.33;;;;;;;12.46;100.00;92562.66;6302304;22;20030;-77
2023/10/17 13:08:37;;;;;;;6.80;3.40;;;;;;;12.54;100.00;92564.59;6302178;22;20038;-78
2023/10/17 13:11:03;;;;;;;6.85;3.10;;;;;;;12.74;100.00;92567.84;6302471;22;20158;-78
2023/10/17 13:13:32;;;;;;;6.57;3.20;;;;;;;12.69;100.00;92559.00;6301522;22;20069;-77
2023/10/17 13:15:57;;;;;;;6.40;2.88;;;;;;;12.81;100.00;92549.81;6274584;22;20015;-77
2023/10/17 13:18:30;;;;;;;5.78;3.30;;;;;;;12.50;100.00;92550.50;6273272;22;20003;-77
2023/10/17 13:21:02;;;;;;;6.28;3.15;;;;;;;12.44;100.00;92551.69;6301699;22;20094;-77
2023/10/17 13:23:28;;;;;;;5.97;2.72;;;;;;;12.71;100.00;92551.59;6301835;22;20356;-77
2023/10/17 13:25:54;;;;;;;5.63;2.72;;;;;;;12.77;100.00;92548.88;6301812;22;20003;-77
2023/10/17 13:28:20;;;;;;;6.93;3.00;;;;;;;12.90;100.00;92550.66;6274907;22;20011;-77
2023/10/17 13:30:45;;;;;;;5.25;2.78;;;;;;;12.59;100.00;92550.59;6274683;22;20019;-78
2023/10/17 13:33:11;;;;;;;7.25;3.30;;;;;;;12.45;100.00;92545.34;6302315;22;20436;-77
2023/10/17 13:35:40;;;;;;;5.95;3.10;;;;;;;12.44;100.00;92541.19;6301693;22;20441;-77
2023/10/17 13:38:06;;;;;;;7.97;2.60;;;;;;;12.77;100.00;92535.75;6301647;22;20015;-77
2023/10/17 13:40:32;;;;;;;8.95;3.13;;;;;;;12.67;100.00;92529.63;6301774;22;20011;-77
2023/10/17 13:43:00;;;;;;;9.20;2.95;;;;;;;12.77;100.00;92539.13;6303977;22;20026;-77
2023/10/17 13:45:27;;;;;;;5.22;3.17;;;;;;;12.86;100.00;92544.47;6302597;22;20090;-78
2023/10/17 13:47:54;;;;;;;6.78;3.30;;;;;;;13.04;100.00;92543.50;6302648;22;20046;-78
2023/10/17 13:50:21;;;;;;;7.35;3.47;;;;;;;13.24;100.00;92544.88;6276411;22;20437;-78
2023/10/17 13:52:52;;;;;;;7.07;2.60;;;;;;;13.03;100.00;92538.53;6303889;22;20012;-77
2023/10/17 13:55:25;;;;;;;6.15;2.80;;;;;;;13.07;100.00;92536.88;6278724;22;20380;-79
2023/10/17 13:58:04;;;;;;;5.20;3.13;;;;;;;13.10;100.00;92539.69;6304202;22;20024;-77